createdAt,value
2019-02-04T00:00:35.438Z,22.03
2019-02-04T00:01:35.452Z,21.97
2019-02-04T00:02:35.466Z,21.96
2019-02-04T00:03:35.598Z,21.99
2019-02-04T00:04:35.509Z,21.91
2019-02-04T00:05:35.507Z,21.89
2019-02-04T00:06:35.524Z,21.91
2019-02-04T00:07:35.550Z,21.89
2019-02-04T00:08:35.709Z,21.84
2019-02-04T00:09:35.579Z,21.88
2019-02-04T00:10:35.600Z,21.83
2019-02-04T00:11:35.607Z,21.83
2019-02-04T00:12:35.624Z,21.92
2019-02-04T00:13:35.803Z,21.91
2019-02-04T00:14:35.667Z,21.97
2019-02-04T00:15:35.681Z,21.99
2019-02-04T00:16:40.795Z,21.97
2019-02-04T00:17:35.834Z,21.97
2019-02-04T00:18:35.841Z,21.97
2019-02-04T00:19:35.729Z,21.97
2019-02-04T00:20:35.873Z,21.99
2019-02-04T00:21:35.893Z,21.92
2019-02-04T00:22:35.797Z,22.04
2019-02-04T00:23:35.895Z,21.97
2019-02-04T00:24:35.814Z,22.00
2019-02-04T00:25:35.963Z,21.99
2019-02-04T00:26:35.927Z,22.03
2019-02-04T00:27:35.983Z,22.06
2019-02-04T00:28:35.878Z,22.08
2019-02-04T00:29:36.001Z,22.12
2019-02-04T00:30:35.902Z,22.14
2019-02-04T00:31:35.973Z,22.12
2019-02-04T00:32:35.948Z,22.15
2019-02-04T00:33:35.956Z,22.15
2019-02-04T00:34:36.113Z,22.16
2019-02-04T00:35:36.110Z,22.10
2019-02-04T00:36:35.996Z,22.14
2019-02-04T00:37:36.012Z,22.18
2019-02-04T00:38:36.028Z,22.18
2019-02-04T00:39:36.155Z,22.19
2019-02-04T00:40:36.081Z,22.16
2019-02-04T00:41:36.076Z,22.19
2019-02-04T00:42:36.093Z,22.10
2019-02-04T00:43:36.111Z,22.12
2019-02-04T00:44:36.233Z,22.08
2019-02-04T00:45:36.141Z,22.10
2019-02-04T00:46:36.151Z,22.12
2019-02-04T00:47:36.161Z,22.06
2019-02-04T00:48:36.187Z,22.04
2019-02-04T00:49:36.295Z,22.08
2019-02-04T00:50:36.212Z,21.96
2019-02-04T00:51:36.235Z,21.97
2019-02-04T00:52:36.249Z,22.00
2019-02-04T00:53:36.275Z,21.96
2019-02-04T00:54:36.379Z,21.99
2019-02-04T00:55:36.304Z,21.91
2019-02-04T00:56:36.321Z,21.97
2019-02-04T00:57:36.326Z,21.97
2019-02-04T00:58:36.344Z,21.91
2019-02-04T00:59:36.515Z,21.89
2019-02-04T01:00:36.376Z,21.88
2019-02-04T01:01:36.386Z,21.89
2019-02-04T01:02:36.400Z,21.80
2019-02-04T01:03:36.418Z,21.94
2019-02-04T01:04:36.534Z,21.88
2019-02-04T01:05:36.451Z,21.88
2019-02-04T01:06:36.472Z,21.91
2019-02-04T01:07:36.485Z,21.81
2019-02-04T01:08:36.503Z,21.85
2019-02-04T01:09:36.620Z,21.84
2019-02-04T01:10:36.659Z,21.84
2019-02-04T01:11:36.548Z,21.89
2019-02-04T01:12:36.556Z,21.89
2019-02-04T01:13:36.579Z,21.89
2019-02-04T01:14:36.595Z,21.81
2019-02-04T01:15:36.731Z,21.85
2019-02-04T01:16:36.754Z,21.85
2019-02-04T01:17:36.650Z,21.84
2019-02-04T01:18:36.656Z,21.89
2019-02-04T01:19:36.673Z,21.84
2019-02-04T01:20:36.686Z,21.88
2019-02-04T01:21:36.802Z,21.84
2019-02-04T01:22:36.717Z,21.83
2019-02-04T01:23:36.735Z,21.88
2019-02-04T01:24:36.753Z,21.81
2019-02-04T01:25:36.896Z,21.84
2019-02-04T01:26:36.887Z,21.89
2019-02-04T01:27:36.795Z,21.92
2019-02-04T01:28:36.814Z,21.99
2019-02-04T01:29:36.832Z,21.96
2019-02-04T01:30:36.852Z,21.97
2019-02-04T01:31:36.960Z,22.03
2019-02-04T01:32:36.885Z,22.01
2019-02-04T01:33:37.016Z,21.94
2019-02-04T01:34:36.934Z,21.89
2019-02-04T01:35:36.936Z,21.88
2019-02-04T01:36:37.051Z,22.03
2019-02-04T01:37:37.079Z,21.96
2019-02-04T01:38:36.963Z,21.94
2019-02-04T01:39:37.110Z,22.03
2019-02-04T01:40:37.130Z,22.01
2019-02-04T01:41:37.120Z,21.97
2019-02-04T01:42:37.043Z,22.03
2019-02-04T01:43:37.050Z,22.04
2019-02-04T01:44:37.068Z,22.07
2019-02-04T01:45:37.083Z,22.07
2019-02-04T01:46:37.157Z,22.12
2019-02-04T01:47:37.118Z,22.12
2019-02-04T01:48:37.130Z,22.12
2019-02-04T01:49:37.375Z,22.19
2019-02-04T01:50:37.169Z,22.19
2019-02-04T01:51:37.174Z,22.15
2019-02-04T01:52:37.186Z,22.23
2019-02-04T01:53:37.201Z,22.22
2019-02-04T01:54:37.350Z,22.25
2019-02-04T01:55:37.254Z,22.34
2019-02-04T01:56:37.279Z,22.28
2019-02-04T01:57:37.300Z,22.31
2019-02-04T01:58:37.297Z,22.44
2019-02-04T01:59:37.421Z,22.37
2019-02-04T02:00:37.322Z,22.31
2019-02-04T02:01:37.472Z,22.41
2019-02-04T02:02:37.358Z,22.31
2019-02-04T02:03:37.379Z,22.40
2019-02-04T02:04:37.443Z,22.40
2019-02-04T02:05:37.427Z,22.41
2019-02-04T02:06:37.546Z,22.31
2019-02-04T02:07:37.558Z,22.33
2019-02-04T02:08:37.575Z,22.28
2019-02-04T02:09:37.563Z,22.22
2019-02-04T02:10:37.480Z,22.23
2019-02-04T02:11:37.621Z,22.19
2019-02-04T02:12:37.525Z,22.21
2019-02-04T02:13:37.560Z,22.23
2019-02-04T02:14:37.744Z,22.30
2019-02-04T02:15:37.695Z,22.30
2019-02-04T02:16:37.604Z,22.22
2019-02-04T02:17:37.715Z,22.21
2019-02-04T02:18:37.738Z,22.28
2019-02-04T02:19:37.797Z,22.23
2019-02-04T02:20:37.769Z,22.25
2019-02-04T02:21:37.654Z,22.31
2019-02-04T02:22:37.720Z,22.34
2019-02-04T02:23:37.684Z,22.34
2019-02-04T02:24:37.713Z,22.37
2019-02-04T02:25:37.718Z,22.37
2019-02-04T02:26:37.739Z,22.40
2019-02-04T02:27:37.929Z,22.34
2019-02-04T02:28:37.888Z,22.40
2019-02-04T02:29:37.778Z,22.38
2019-02-04T02:30:37.793Z,22.44
2019-02-04T02:31:37.839Z,22.46
2019-02-04T02:32:38.073Z,22.41
2019-02-04T02:33:37.860Z,22.40
2019-02-04T02:34:37.883Z,22.43
2019-02-04T02:35:37.902Z,22.43
2019-02-04T02:36:37.898Z,22.47
2019-02-04T02:37:38.012Z,22.37
2019-02-04T02:38:37.937Z,22.41
2019-02-04T02:39:37.957Z,22.41
2019-02-04T02:40:37.967Z,22.49
2019-02-04T02:41:37.986Z,22.55
2019-02-04T02:42:38.095Z,22.58
2019-02-04T02:43:38.134Z,22.55
2019-02-04T02:44:38.046Z,22.52
2019-02-04T02:45:38.038Z,22.55
2019-02-04T02:46:38.049Z,22.53
2019-02-04T02:47:38.839Z,22.49
2019-02-04T02:48:38.087Z,22.51
2019-02-04T02:49:38.099Z,22.49
2019-02-04T02:50:38.122Z,22.44
2019-02-04T02:51:38.140Z,22.51
2019-02-04T02:52:38.203Z,22.44
2019-02-04T02:53:38.170Z,22.46
2019-02-04T02:54:38.186Z,22.46
2019-02-04T02:55:38.204Z,22.43
2019-02-04T02:56:38.244Z,22.49
2019-02-04T02:57:38.459Z,22.52
2019-02-04T02:58:38.373Z,22.46
2019-02-04T02:59:38.266Z,22.41
2019-02-04T03:00:38.279Z,22.49
2019-02-04T03:01:38.308Z,22.52
2019-02-04T03:02:38.375Z,22.44
2019-02-04T03:03:38.339Z,22.51
2019-02-04T03:04:38.348Z,22.51
2019-02-04T03:05:38.368Z,22.40
2019-02-04T03:06:38.389Z,22.46
2019-02-04T03:07:38.490Z,22.52
2019-02-04T03:08:38.532Z,22.43
2019-02-04T03:09:38.439Z,22.37
2019-02-04T03:10:38.565Z,22.43
2019-02-04T03:11:38.474Z,22.41
2019-02-04T03:12:38.595Z,22.44
2019-02-04T03:13:38.624Z,22.46
2019-02-04T03:14:38.554Z,22.49
2019-02-04T03:15:38.580Z,22.38
2019-02-04T03:16:38.569Z,22.49
2019-02-04T03:17:50.604Z,22.49
2019-02-04T03:18:38.595Z,22.46
2019-02-04T03:19:38.596Z,22.53
2019-02-04T03:20:38.619Z,22.58
2019-02-04T03:21:38.743Z,22.44
2019-02-04T03:22:38.738Z,22.41
2019-02-04T03:23:38.662Z,22.41
2019-02-04T03:24:38.673Z,22.44
2019-02-04T03:25:38.693Z,22.46
2019-02-04T03:26:38.736Z,22.44
2019-02-04T03:27:38.940Z,22.46
2019-02-04T03:28:38.864Z,22.37
2019-02-04T03:29:38.873Z,22.46
2019-02-04T03:30:38.775Z,22.37
2019-02-04T03:31:40.050Z,22.44
2019-02-04T03:32:42.526Z,22.44
2019-02-04T03:33:38.848Z,22.49
2019-02-04T03:34:38.951Z,22.52
2019-02-04T03:35:38.851Z,22.47
2019-02-04T03:36:38.871Z,22.55
2019-02-04T03:37:39.100Z,22.58
2019-02-04T03:38:39.020Z,22.52
2019-02-04T03:39:38.908Z,22.63
2019-02-04T03:40:38.956Z,22.62
2019-02-04T03:41:38.966Z,22.58
2019-02-04T03:42:39.025Z,22.61
2019-02-04T03:43:38.974Z,22.63
2019-02-04T03:44:39.120Z,22.76
2019-02-04T03:45:39.021Z,22.77
2019-02-04T03:46:39.036Z,22.73
2019-02-04T03:47:39.138Z,22.73
2019-02-04T03:48:39.106Z,22.73
2019-02-04T03:49:39.078Z,22.74
2019-02-04T03:50:39.207Z,22.70
2019-02-04T03:51:39.225Z,22.53
2019-02-04T03:52:39.342Z,22.56
2019-02-04T03:53:39.256Z,22.43
2019-02-04T03:54:39.279Z,22.15
2019-02-04T03:55:39.179Z,21.88
2019-02-04T03:56:39.202Z,21.78
2019-02-04T03:57:39.409Z,21.59
2019-02-04T03:58:39.347Z,21.43
2019-02-04T03:59:39.236Z,21.35
2019-02-04T04:00:39.388Z,21.30
2019-02-04T04:01:39.386Z,21.30
2019-02-04T04:02:39.391Z,21.23
2019-02-04T04:03:39.411Z,21.11
2019-02-04T04:04:39.312Z,21.08
2019-02-04T04:05:39.376Z,21.03
2019-02-04T04:06:39.371Z,21.07
2019-02-04T04:07:39.633Z,21.05
2019-02-04T04:08:39.375Z,21.04
2019-02-04T04:09:39.370Z,21.01
2019-02-04T04:10:39.386Z,21.01
2019-02-04T04:11:39.538Z,21.03
2019-02-04T04:12:39.651Z,20.95
2019-02-04T04:13:39.451Z,20.83
2019-02-04T04:14:39.483Z,20.74
2019-02-04T04:15:39.605Z,20.74
2019-02-04T04:16:39.490Z,20.68
2019-02-04T04:17:39.684Z,20.60
2019-02-04T04:18:39.590Z,20.59
2019-02-04T04:19:39.543Z,20.66
2019-02-04T04:20:39.542Z,20.63
2019-02-04T04:21:39.587Z,20.60
2019-02-04T04:22:39.854Z,20.50
2019-02-04T04:23:39.610Z,20.49
2019-02-04T04:24:39.619Z,20.58
2019-02-04T04:25:39.632Z,20.55
2019-02-04T04:26:39.645Z,20.59
2019-02-04T04:27:39.753Z,20.55
2019-02-04T04:28:39.653Z,20.50
2019-02-04T04:29:39.670Z,20.59
2019-02-04T04:30:39.691Z,20.59
2019-02-04T04:31:39.729Z,20.46
2019-02-04T04:32:40.011Z,20.42
2019-02-04T04:33:39.867Z,20.44
2019-02-04T04:34:39.883Z,20.21
2019-02-04T04:35:39.899Z,20.26
2019-02-04T04:36:39.776Z,20.30
2019-02-04T04:37:39.983Z,20.26
2019-02-04T04:38:39.825Z,20.34
2019-02-04T04:39:39.962Z,20.29
2019-02-04T04:40:39.851Z,20.37
2019-02-04T04:41:39.980Z,20.32
2019-02-04T04:42:39.974Z,20.33
2019-02-04T04:43:40.009Z,20.27
2019-02-04T04:44:40.033Z,20.33
2019-02-04T04:45:39.948Z,20.36
2019-02-04T04:46:39.942Z,20.32
2019-02-04T04:47:40.087Z,20.32
2019-02-04T04:48:40.095Z,20.40
2019-02-04T04:49:40.100Z,20.40
2019-02-04T04:50:40.016Z,20.49
2019-02-04T04:51:40.016Z,20.50
2019-02-04T04:52:40.057Z,20.66
2019-02-04T04:53:40.154Z,20.64
2019-02-04T04:54:40.055Z,20.56
2019-02-04T04:55:40.065Z,20.39
2019-02-04T04:56:40.195Z,20.36
2019-02-04T04:57:40.099Z,20.39
2019-02-04T04:58:40.807Z,20.53
2019-02-04T04:59:40.127Z,20.55
2019-02-04T05:00:40.215Z,20.40
2019-02-04T05:01:40.168Z,20.44
2019-02-04T05:02:40.285Z,20.46
2019-02-04T05:03:40.398Z,20.24
2019-02-04T05:04:40.316Z,20.17
2019-02-04T05:05:40.212Z,20.18
2019-02-04T05:06:40.345Z,20.15
2019-02-04T05:07:40.359Z,20.17
2019-02-04T05:08:40.480Z,20.14
2019-02-04T05:09:40.288Z,20.17
2019-02-04T05:10:40.292Z,20.18
2019-02-04T05:11:40.300Z,20.18
2019-02-04T05:12:40.438Z,20.14
2019-02-04T05:13:40.643Z,20.19
2019-02-04T05:14:40.468Z,20.15
2019-02-04T05:15:40.347Z,20.21
2019-02-04T05:16:40.370Z,20.18
2019-02-04T05:17:40.406Z,20.03
2019-02-04T05:18:40.492Z,20.07
2019-02-04T05:19:40.409Z,20.08
2019-02-04T05:20:40.445Z,20.04
2019-02-04T05:21:40.463Z,20.07
2019-02-04T05:22:40.449Z,20.12
2019-02-04T05:23:40.582Z,20.15
2019-02-04T05:24:40.597Z,20.18
2019-02-04T05:25:40.618Z,20.18
2019-02-04T05:26:40.495Z,20.30
2019-02-04T05:27:40.550Z,20.36
2019-02-04T05:28:40.659Z,20.30
2019-02-04T05:29:40.576Z,20.37
2019-02-04T05:30:40.572Z,20.39
2019-02-04T05:31:40.581Z,20.42
2019-02-04T05:32:40.715Z,20.52
2019-02-04T05:33:40.618Z,20.58
2019-02-04T05:34:40.844Z,20.63
2019-02-04T05:35:40.766Z,20.56
2019-02-04T05:36:40.647Z,20.70
2019-02-04T05:37:40.792Z,20.75
2019-02-04T05:38:40.693Z,20.68
2019-02-04T05:39:40.978Z,20.68
2019-02-04T05:40:40.714Z,20.70
2019-02-04T05:41:42.909Z,20.64
2019-02-04T05:42:40.749Z,20.74
2019-02-04T05:43:40.879Z,20.74
2019-02-04T05:44:40.888Z,20.74
2019-02-04T05:45:40.903Z,20.73
2019-02-04T05:46:40.920Z,20.71
2019-02-04T05:47:40.931Z,20.70
2019-02-04T05:48:49.066Z,20.70
2019-02-04T05:49:40.993Z,20.73
2019-02-04T05:50:40.860Z,20.71
2019-02-04T05:51:40.878Z,20.68
2019-02-04T05:52:40.897Z,20.73
2019-02-04T05:53:40.910Z,20.74
2019-02-04T05:54:41.067Z,20.75
2019-02-04T05:55:40.929Z,20.82
2019-02-04T05:56:40.957Z,20.74
2019-02-04T05:57:41.074Z,20.75
2019-02-04T05:58:41.088Z,20.74
2019-02-04T05:59:41.075Z,20.75
2019-02-04T06:00:41.000Z,20.80
2019-02-04T06:01:41.136Z,20.74
2019-02-04T06:02:41.047Z,20.74
2019-02-04T06:03:41.162Z,20.78
2019-02-04T06:04:41.150Z,20.75
2019-02-04T06:05:41.099Z,20.80
2019-02-04T06:06:41.205Z,20.78
2019-02-04T06:07:41.110Z,20.74
2019-02-04T06:08:41.233Z,20.85
2019-02-04T06:09:41.350Z,20.73
2019-02-04T06:10:41.171Z,20.77
2019-02-04T06:11:41.186Z,20.83
2019-02-04T06:12:41.291Z,20.86
2019-02-04T06:13:41.186Z,20.73
2019-02-04T06:14:41.427Z,20.83
2019-02-04T06:15:41.226Z,20.78
2019-02-04T06:16:41.249Z,20.78
2019-02-04T06:17:41.363Z,20.75
2019-02-04T06:18:41.376Z,20.77
2019-02-04T06:19:41.387Z,20.82
2019-02-04T06:20:41.293Z,20.77
2019-02-04T06:21:41.328Z,20.80
2019-02-04T06:22:41.334Z,20.73
2019-02-04T06:23:41.388Z,20.80
2019-02-04T06:24:41.399Z,20.78
2019-02-04T06:25:41.482Z,20.80
2019-02-04T06:26:41.371Z,20.78
2019-02-04T06:27:41.386Z,20.78
2019-02-04T06:28:41.411Z,20.74
2019-02-04T06:29:41.468Z,20.83
2019-02-04T06:30:41.667Z,20.82
2019-02-04T06:31:41.567Z,20.78
2019-02-04T06:32:41.493Z,20.82
2019-02-04T06:33:41.508Z,20.78
2019-02-04T06:34:41.721Z,20.74
2019-02-04T06:35:41.510Z,20.74
2019-02-04T06:36:41.658Z,20.64
2019-02-04T06:37:41.658Z,20.77
2019-02-04T06:38:41.797Z,20.59
2019-02-04T06:39:41.570Z,20.74
2019-02-04T06:40:41.759Z,20.71
2019-02-04T06:41:41.714Z,20.78
2019-02-04T06:42:41.729Z,20.68
2019-02-04T06:43:41.702Z,20.73
2019-02-04T06:44:41.641Z,20.74
2019-02-04T06:45:41.883Z,20.58
2019-02-04T06:46:41.696Z,20.64
2019-02-04T06:47:41.706Z,20.63
2019-02-04T06:48:41.715Z,20.59
2019-02-04T06:49:41.836Z,20.60
2019-02-04T06:50:41.802Z,20.53
2019-02-04T06:51:41.788Z,20.59
2019-02-04T06:52:41.882Z,20.59
2019-02-04T06:53:41.782Z,20.60
2019-02-04T06:54:41.767Z,20.56
2019-02-04T06:55:41.850Z,20.44
2019-02-04T06:56:41.814Z,20.49
2019-02-04T06:57:41.827Z,20.58
2019-02-04T06:58:41.853Z,20.55
2019-02-04T06:59:41.972Z,20.56
2019-02-04T07:00:42.025Z,20.50
2019-02-04T07:01:41.899Z,20.59
2019-02-04T07:02:42.029Z,20.58
2019-02-04T07:03:41.972Z,20.63
2019-02-04T07:04:41.946Z,20.63
2019-02-04T07:05:43.891Z,20.60
2019-02-04T07:06:42.074Z,20.60
2019-02-04T07:07:42.091Z,20.60
2019-02-04T07:08:42.105Z,20.68
2019-02-04T07:09:42.017Z,20.59
2019-02-04T07:10:42.069Z,20.63
2019-02-04T07:11:42.155Z,20.55
2019-02-04T07:12:42.055Z,20.60
2019-02-04T07:13:42.711Z,20.66
2019-02-04T07:14:42.078Z,20.59
2019-02-04T07:15:42.239Z,20.59
2019-02-04T07:16:42.115Z,20.59
2019-02-04T07:17:42.129Z,20.55
2019-02-04T07:18:42.247Z,20.64
2019-02-04T07:19:42.263Z,20.66
2019-02-04T07:20:42.248Z,20.64
2019-02-04T07:21:42.294Z,20.68
2019-02-04T07:22:42.206Z,20.64
2019-02-04T07:23:42.204Z,20.63
2019-02-04T07:24:43.162Z,20.63
2019-02-04T07:25:42.298Z,20.63
2019-02-04T07:26:42.249Z,20.58
2019-02-04T07:27:42.273Z,20.64
2019-02-04T07:28:42.390Z,20.64
2019-02-04T07:29:42.405Z,20.59
2019-02-04T07:30:42.525Z,20.70
2019-02-04T07:31:42.437Z,20.60
2019-02-04T07:32:42.326Z,20.63
2019-02-04T07:33:42.351Z,20.68
2019-02-04T07:34:42.385Z,20.59
2019-02-04T07:35:42.472Z,20.67
2019-02-04T07:36:42.405Z,20.55
2019-02-04T07:37:42.523Z,20.58
2019-02-04T07:38:42.423Z,20.56
2019-02-04T07:39:42.551Z,20.60
2019-02-04T07:40:42.576Z,20.60
2019-02-04T07:41:42.589Z,20.60
2019-02-04T07:42:42.487Z,20.55
2019-02-04T07:43:42.619Z,20.63
2019-02-04T07:44:42.533Z,20.58
2019-02-04T07:45:42.530Z,20.55
2019-02-04T07:46:42.631Z,20.55
2019-02-04T07:47:42.553Z,20.56
2019-02-04T07:48:42.683Z,20.58
2019-02-04T07:49:42.579Z,20.59
2019-02-04T07:50:42.714Z,20.64
2019-02-04T07:51:42.706Z,20.55
2019-02-04T07:52:42.626Z,20.60
2019-02-04T07:53:42.654Z,20.60
2019-02-04T07:54:42.664Z,20.58
2019-02-04T07:55:42.662Z,20.58
2019-02-04T07:56:42.896Z,20.66
2019-02-04T07:57:42.676Z,20.55
2019-02-04T07:58:42.830Z,20.55
2019-02-04T07:59:42.719Z,20.60
2019-02-04T08:00:42.739Z,20.66
2019-02-04T08:01:42.966Z,20.58
2019-02-04T08:02:42.885Z,20.60
2019-02-04T08:03:42.906Z,20.68
2019-02-04T08:04:42.798Z,20.60
2019-02-04T08:05:42.810Z,20.66
2019-02-04T08:06:42.892Z,20.53
2019-02-04T08:07:42.966Z,20.58
2019-02-04T08:08:42.863Z,20.48
2019-02-04T08:09:42.984Z,20.63
2019-02-04T08:10:43.007Z,20.58
2019-02-04T08:11:43.062Z,20.63
2019-02-04T08:12:43.027Z,20.59
2019-02-04T08:13:42.925Z,20.63
2019-02-04T08:14:45.202Z,20.63
2019-02-04T08:15:42.974Z,20.59
2019-02-04T08:16:43.072Z,20.55
2019-02-04T08:17:43.101Z,20.60
2019-02-04T08:18:43.006Z,20.66
2019-02-04T08:19:47.402Z,20.63
2019-02-04T08:20:43.048Z,20.60
2019-02-04T08:21:43.060Z,20.59
2019-02-04T08:22:43.327Z,20.55
2019-02-04T08:23:43.087Z,20.60
2019-02-04T08:24:43.205Z,20.55
2019-02-04T08:25:43.120Z,20.66
2019-02-04T08:26:43.138Z,20.55
2019-02-04T08:27:43.289Z,20.64
2019-02-04T08:28:43.169Z,20.63
2019-02-04T08:29:43.271Z,20.60
2019-02-04T08:30:43.290Z,20.58
2019-02-04T08:31:43.303Z,20.60
2019-02-04T08:32:43.268Z,20.63
2019-02-04T08:33:43.329Z,20.59
2019-02-04T08:34:43.255Z,20.58
2019-02-04T08:35:43.267Z,20.58
2019-02-04T08:36:46.402Z,20.52
2019-02-04T08:37:43.299Z,20.60
2019-02-04T08:38:43.408Z,20.48
2019-02-04T08:39:43.303Z,20.48
2019-02-04T08:40:43.345Z,20.49
2019-02-04T08:41:43.497Z,20.50
2019-02-04T08:42:43.344Z,20.49
2019-02-04T08:43:43.352Z,20.56
2019-02-04T08:44:43.369Z,20.46
2019-02-04T08:45:43.403Z,20.42
2019-02-04T08:46:43.682Z,20.40
2019-02-04T08:47:43.534Z,20.44
2019-02-04T08:48:43.552Z,20.46
2019-02-04T08:49:43.574Z,20.44
2019-02-04T08:50:43.465Z,20.39
2019-02-04T08:51:43.581Z,20.40
2019-02-04T08:52:43.491Z,20.46
2019-02-04T08:53:43.619Z,20.39
2019-02-04T08:54:43.528Z,20.44
2019-02-04T08:55:43.550Z,20.40
2019-02-04T08:56:43.673Z,20.36
2019-02-04T08:57:43.679Z,20.24
2019-02-04T08:58:43.592Z,20.33
2019-02-04T08:59:43.616Z,20.46
2019-02-04T09:00:43.614Z,20.36
2019-02-04T09:01:43.735Z,20.34
2019-02-04T09:02:43.627Z,20.36
2019-02-04T09:03:43.654Z,20.32
2019-02-04T09:04:43.777Z,20.34
2019-02-04T09:05:43.703Z,20.32
2019-02-04T09:06:43.962Z,20.34
2019-02-04T09:07:43.725Z,20.32
2019-02-04T09:08:43.738Z,20.36
2019-02-04T09:09:43.851Z,20.32
2019-02-04T09:10:43.743Z,20.39
2019-02-04T09:11:43.790Z,20.33
2019-02-04T09:12:43.864Z,20.39
2019-02-04T09:13:43.816Z,20.37
2019-02-04T09:14:43.826Z,20.27
2019-02-04T09:15:43.869Z,20.40
2019-02-04T09:16:43.864Z,20.32
2019-02-04T09:17:44.220Z,20.32
2019-02-04T09:18:45.081Z,20.34
2019-02-04T09:19:43.890Z,20.33
2019-02-04T09:20:43.890Z,20.33
2019-02-04T09:21:44.022Z,20.33
2019-02-04T09:22:44.143Z,20.36
2019-02-04T09:23:44.051Z,20.40
2019-02-04T09:24:43.955Z,20.30
2019-02-04T09:25:43.960Z,20.37
2019-02-04T09:26:43.988Z,20.40
2019-02-04T09:27:44.098Z,20.33
2019-02-04T09:28:44.025Z,20.42
2019-02-04T09:29:44.031Z,20.37
2019-02-04T09:30:44.171Z,20.37
2019-02-04T09:31:44.073Z,20.48
2019-02-04T09:32:44.234Z,20.42
2019-02-04T09:33:44.201Z,20.55
2019-02-04T09:34:44.107Z,20.58
2019-02-04T09:35:44.229Z,20.44
2019-02-04T09:36:44.122Z,20.42
2019-02-04T09:37:44.207Z,20.52
2019-02-04T09:38:44.157Z,20.52
2019-02-04T09:39:46.374Z,20.56
2019-02-04T09:40:44.209Z,20.52
2019-02-04T09:41:44.316Z,20.53
2019-02-04T09:42:44.431Z,20.49
2019-02-04T09:43:44.222Z,20.48
2019-02-04T09:44:44.272Z,20.58
2019-02-04T09:45:44.270Z,20.63
2019-02-04T09:46:44.265Z,20.59
2019-02-04T09:47:44.405Z,20.71
2019-02-04T09:48:44.309Z,20.74
2019-02-04T09:49:44.435Z,20.74
2019-02-04T09:50:44.345Z,20.71
2019-02-04T09:51:44.474Z,20.63
2019-02-04T09:52:44.629Z,20.58
2019-02-04T09:53:44.387Z,20.73
2019-02-04T09:54:44.393Z,20.63
2019-02-04T09:55:44.394Z,20.73
2019-02-04T09:56:44.435Z,20.64
2019-02-04T09:57:44.651Z,20.73
2019-02-04T09:58:44.470Z,20.78
2019-02-04T09:59:44.459Z,20.78
2019-02-04T10:00:44.514Z,20.83
2019-02-04T10:01:44.615Z,20.75
2019-02-04T10:02:44.659Z,20.75
2019-02-04T10:03:44.543Z,20.85
2019-02-04T10:04:44.547Z,20.67
2019-02-04T10:05:44.549Z,20.60
2019-02-04T10:06:44.699Z,20.68
2019-02-04T10:07:44.794Z,20.68
2019-02-04T10:08:44.604Z,20.74
2019-02-04T10:09:44.614Z,20.75
2019-02-04T10:10:44.636Z,20.68
2019-02-04T10:11:44.647Z,20.77
2019-02-04T10:12:44.804Z,20.78
2019-02-04T10:13:44.789Z,20.89
2019-02-04T10:14:44.672Z,20.92
2019-02-04T10:15:45.877Z,20.93
2019-02-04T10:16:44.856Z,21.03
2019-02-04T10:17:44.849Z,20.93
2019-02-04T10:18:44.804Z,20.93
2019-02-04T10:19:44.775Z,21.00
2019-02-04T10:20:44.809Z,20.92
2019-02-04T10:21:44.923Z,20.90
2019-02-04T10:22:44.988Z,21.00
2019-02-04T10:23:44.955Z,20.95
2019-02-04T10:24:44.884Z,20.90
2019-02-04T10:25:44.853Z,20.96
2019-02-04T10:26:44.869Z,20.89
2019-02-04T10:27:45.097Z,20.89
2019-02-04T10:28:45.021Z,20.89
2019-02-04T10:29:45.042Z,20.83
2019-02-04T10:30:44.941Z,20.78
2019-02-04T10:31:45.007Z,20.89
2019-02-04T10:32:45.080Z,20.92
2019-02-04T10:33:45.003Z,20.89
2019-02-04T10:34:45.107Z,20.93
2019-02-04T10:35:45.121Z,20.96
2019-02-04T10:36:45.132Z,20.89
2019-02-04T10:37:45.207Z,20.75
2019-02-04T10:38:45.171Z,20.85
2019-02-04T10:39:45.060Z,20.88
2019-02-04T10:40:45.132Z,20.90
2019-02-04T10:41:45.165Z,20.89
2019-02-04T10:42:45.223Z,20.92
2019-02-04T10:43:45.149Z,20.95
2019-02-04T10:44:45.141Z,21.01
2019-02-04T10:45:45.135Z,20.90
2019-02-04T10:46:45.221Z,20.75
2019-02-04T10:47:45.518Z,20.68
2019-02-04T10:48:45.287Z,20.70
2019-02-04T10:49:45.214Z,20.74
2019-02-04T10:50:46.892Z,20.86
2019-02-04T10:51:45.284Z,21.01
2019-02-04T10:52:45.354Z,20.93
2019-02-04T10:53:45.427Z,21.20
2019-02-04T10:54:45.328Z,21.26
2019-02-04T10:55:45.450Z,21.32
2019-02-04T10:56:45.350Z,21.37
2019-02-04T10:57:45.631Z,21.35
2019-02-04T10:58:45.496Z,21.33
2019-02-04T10:59:45.390Z,21.41
2019-02-04T11:00:45.426Z,21.33
2019-02-04T11:01:45.434Z,21.47
2019-02-04T11:02:45.523Z,21.50
2019-02-04T11:03:45.462Z,21.35
2019-02-04T11:04:45.583Z,21.17
2019-02-04T11:05:45.475Z,21.11
2019-02-04T11:06:45.697Z,21.07
2019-02-04T11:07:45.541Z,20.88
2019-02-04T11:08:45.649Z,20.92
2019-02-04T11:09:45.537Z,20.90
2019-02-04T11:10:45.562Z,21.05
2019-02-04T11:11:45.614Z,20.93
2019-02-04T11:12:45.740Z,21.07
2019-02-04T11:13:45.649Z,21.10
2019-02-04T11:14:45.840Z,21.11
2019-02-04T11:15:45.739Z,20.92
2019-02-04T11:16:45.774Z,21.07
2019-02-04T11:17:45.658Z,20.95
2019-02-04T11:18:45.669Z,21.08
2019-02-04T11:19:45.840Z,21.04
2019-02-04T11:20:57.242Z,20.86
2019-02-04T11:21:45.831Z,20.93
2019-02-04T11:22:45.836Z,20.90
2019-02-04T11:23:45.757Z,20.96
2019-02-04T11:24:45.885Z,20.93
2019-02-04T11:25:45.772Z,20.83
2019-02-04T11:26:45.839Z,20.95
2019-02-04T11:27:45.931Z,21.08
2019-02-04T11:28:45.882Z,21.13
2019-02-04T11:29:45.913Z,21.17
2019-02-04T11:30:45.870Z,21.11
2019-02-04T11:31:45.936Z,21.08
2019-02-04T11:32:45.997Z,21.19
2019-02-04T11:33:46.116Z,21.28
2019-02-04T11:34:48.977Z,21.19
2019-02-04T11:35:45.955Z,21.41
2019-02-04T11:36:45.943Z,21.60
2019-02-04T11:37:45.973Z,21.69
2019-02-04T11:38:46.160Z,21.53
2019-02-04T11:39:46.049Z,21.50
2019-02-04T11:40:46.143Z,21.69
2019-02-04T11:41:46.163Z,21.77
2019-02-04T11:42:46.226Z,21.72
2019-02-04T11:43:46.086Z,21.81
2019-02-04T11:44:46.066Z,21.83
2019-02-04T11:45:46.199Z,21.96
2019-02-04T11:46:46.123Z,21.72
2019-02-04T11:47:46.257Z,21.74
2019-02-04T11:48:46.146Z,21.85
2019-02-04T11:49:46.148Z,21.99
2019-02-04T11:50:46.191Z,21.84
2019-02-04T11:51:46.206Z,21.96
2019-02-04T11:52:46.295Z,21.96
2019-02-04T11:53:46.229Z,21.89
2019-02-04T11:54:46.250Z,21.99
2019-02-04T11:55:46.365Z,21.85
2019-02-04T11:56:46.267Z,21.77
2019-02-04T11:57:46.318Z,21.85
2019-02-04T11:58:46.290Z,21.97
2019-02-04T11:59:46.324Z,22.21
2019-02-04T12:00:46.360Z,22.30
2019-02-04T12:01:46.356Z,22.36
2019-02-04T12:02:46.448Z,22.25
2019-02-04T12:03:46.375Z,22.28
2019-02-04T12:04:46.427Z,22.40
2019-02-04T12:05:46.551Z,22.31
2019-02-04T12:06:46.448Z,22.46
2019-02-04T12:07:46.577Z,22.37
2019-02-04T12:08:46.585Z,22.37
2019-02-04T12:09:46.496Z,22.52
2019-02-04T12:10:46.494Z,22.55
2019-02-04T12:11:46.553Z,22.63
2019-02-04T12:12:46.760Z,22.53
2019-02-04T12:13:46.689Z,22.56
2019-02-04T12:14:46.566Z,22.73
2019-02-04T12:15:46.585Z,22.88
2019-02-04T12:16:46.619Z,22.81
2019-02-04T12:17:46.702Z,22.67
2019-02-04T12:18:46.627Z,22.46
2019-02-04T12:19:46.880Z,22.44
2019-02-04T12:20:46.793Z,22.22
2019-02-04T12:21:46.737Z,22.44
2019-02-04T12:22:46.718Z,22.25
2019-02-04T12:23:46.732Z,22.43
2019-02-04T12:24:46.850Z,22.41
2019-02-04T12:25:46.771Z,22.36
2019-02-04T12:26:46.790Z,22.26
2019-02-04T12:27:46.808Z,22.43
2019-02-04T12:28:46.944Z,22.33
2019-02-04T12:29:46.971Z,22.25
2019-02-04T12:30:46.861Z,22.18
2019-02-04T12:31:46.875Z,22.18
2019-02-04T12:32:46.953Z,22.14
2019-02-04T12:33:46.923Z,22.10
2019-02-04T12:34:47.094Z,22.18
2019-02-04T12:35:46.945Z,22.31
2019-02-04T12:36:46.998Z,22.44
2019-02-04T12:37:46.964Z,22.52
2019-02-04T12:38:47.023Z,22.51
2019-02-04T12:39:47.106Z,22.65
2019-02-04T12:40:47.060Z,22.74
2019-02-04T12:41:47.062Z,22.80
2019-02-04T12:42:47.078Z,23.07
2019-02-04T12:43:47.083Z,23.18
2019-02-04T12:44:47.205Z,23.06
2019-02-04T12:45:47.109Z,23.42
2019-02-04T12:46:47.255Z,23.40
2019-02-04T12:47:47.276Z,23.25
2019-02-04T12:48:47.159Z,23.39
2019-02-04T12:49:47.291Z,23.62
2019-02-04T12:50:47.324Z,23.81
2019-02-04T12:51:47.258Z,23.82
2019-02-04T12:52:47.254Z,23.73